sensor_id;sensor_type;location;lat;lon;timestamp;P1;durP1;ratioP1;P2;durP2;ratioP2
41263;SDS011;26998;48.714;9.414;2023-05-10T00:00:48;4.07;;;1.98;;
41263;SDS011;26998;48.714;9.414;2023-05-10T00:03:14;2.28;;;2.08;;
41263;SDS011;26998;48.714;9.414;2023-05-10T00:05:41;2.42;;;2.00;;
41263;SDS011;26998;48.714;9.414;2023-05-10T00:08:07;2.25;;;2.05;;
41263;SDS011;26998;48.714;9.414;2023-05-10T00:10:35;2.15;;;1.85;;
41263;SDS011;26998;48.714;9.414;2023-05-10T00:13:02;1.98;;;1.88;;
41263;SDS011;26998;48.714;9.414;2023-05-10T00:15:29;2.38;;;2.05;;
41263;SDS011;26998;48.714;9.414;2023-05-10T00:17:56;3.17;;;1.80;;
41263;SDS011;26998;48.714;9.414;2023-05-10T00:20:23;3.20;;;1.80;;
41263;SDS011;26998;48.714;9.414;2023-05-10T00:22:50;2.20;;;1.98;;
41263;SDS011;26998;48.714;9.414;2023-05-10T00:25:16;2.10;;;1.90;;
41263;SDS011;26998;48.714;9.414;2023-05-10T00:27:43;5.00;;;2.72;;
41263;SDS011;26998;48.714;9.414;2023-05-10T00:30:10;3.50;;;2.60;;
41263;SDS011;26998;48.714;9.414;2023-05-10T00:32:36;3.00;;;2.70;;
41263;SDS011;26998;48.714;9.414;2023-05-10T00:35:04;3.50;;;2.92;;
41263;SDS011;26998;48.714;9.414;2023-05-10T00:37:31;4.40;;;2.33;;
41263;SDS011;26998;48.714;9.414;2023-05-10T00:39:57;5.28;;;2.22;;
41263;SDS011;26998;48.714;9.414;2023-05-10T00:42:23;6.55;;;3.58;;
41263;SDS011;26998;48.714;9.414;2023-05-10T00:44:50;5.50;;;3.20;;
41263;SDS011;26998;48.714;9.414;2023-05-10T00:47:17;27.77;;;7.18;;
41263;SDS011;26998;48.714;9.414;2023-05-10T00:49:45;21.75;;;5.22;;
41263;SDS011;26998;48.714;9.414;2023-05-10T00:52:11;2.35;;;1.33;;
41263;SDS011;26998;48.714;9.414;2023-05-10T00:54:38;5.53;;;2.05;;
41263;SDS011;26998;48.714;9.414;2023-05-10T00:57:05;10.05;;;3.13;;
41263;SDS011;26998;48.714;9.414;2023-05-10T00:59:31;5.53;;;1.65;;
41263;SDS011;26998;48.714;9.414;2023-05-10T01:01:58;9.70;;;2.60;;
41263;SDS011;26998;48.714;9.414;2023-05-10T01:04:25;7.20;;;2.03;;
41263;SDS011;26998;48.714;9.414;2023-05-10T01:06:52;16.75;;;4.10;;
41263;SDS011;26998;48.714;9.414;2023-05-10T01:09:19;13.10;;;3.60;;
41263;SDS011;26998;48.714;9.414;2023-05-10T01:11:47;4.00;;;1.70;;
41263;SDS011;26998;48.714;9.414;2023-05-10T01:14:15;5.13;;;2.00;;
41263;SDS011;26998;48.714;9.414;2023-05-10T01:16:44;2.80;;;1.63;;
41263;SDS011;26998;48.714;9.414;2023-05-10T01:19:18;8.27;;;2.72;;
41263;SDS011;26998;48.714;9.414;2023-05-10T01:22:02;5.15;;;2.08;;
41263;SDS011;26998;48.714;9.414;2023-05-10T01:25:08;9.43;;;2.40;;
41263;SDS011;26998;48.714;9.414;2023-05-10T01:27:47;7.50;;;2.45;;
41263;SDS011;26998;48.714;9.414;2023-05-10T01:30:25;6.63;;;1.45;;
41263;SDS011;26998;48.714;9.414;2023-05-10T01:33:11;4.00;;;1.45;;
41263;SDS011;26998;48.714;9.414;2023-05-10T01:39:08;6.65;;;1.20;;
41263;SDS011;26998;48.714;9.414;2023-05-10T01:47:20;15.95;;;3.83;;
41263;SDS011;26998;48.714;9.414;2023-05-10T01:49:57;24.80;;;3.60;;
41263;SDS011;26998;48.714;9.414;2023-05-10T01:52:33;5.95;;;2.33;;
41263;SDS011;26998;48.714;9.414;2023-05-10T01:55:06;9.38;;;1.85;;
41263;SDS011;26998;48.714;9.414;2023-05-10T01:57:36;4.72;;;1.30;;
41263;SDS011;26998;48.714;9.414;2023-05-10T02:00:07;7.47;;;1.77;;
41263;SDS011;26998;48.714;9.414;2023-05-10T02:02:36;4.32;;;1.48;;
41263;SDS011;26998;48.714;9.414;2023-05-10T02:05:06;9.13;;;1.80;;
41263;SDS011;26998;48.714;9.414;2023-05-10T02:07:34;4.78;;;1.48;;
41263;SDS011;26998;48.714;9.414;2023-05-10T02:10:06;2.03;;;0.90;;
41263;SDS011;26998;48.714;9.414;2023-05-10T02:12:37;4.43;;;1.13;;
41263;SDS011;26998;48.714;9.414;2023-05-10T02:15:16;9.88;;;1.67;;
41263;SDS011;26998;48.714;9.414;2023-05-10T02:17:48;9.05;;;2.13;;
41263;SDS011;26998;48.714;9.414;2023-05-10T02:20:16;7.68;;;2.35;;
41263;SDS011;26998;48.714;9.414;2023-05-10T02:22:46;5.32;;;1.10;;
41263;SDS011;26998;48.714;9.414;2023-05-10T02:25:15;3.92;;;1.08;;
41263;SDS011;26998;48.714;9.414;2023-05-10T02:27:44;6.82;;;1.42;;
41263;SDS011;26998;48.714;9.414;2023-05-10T02:30:12;3.58;;;1.27;;
41263;SDS011;26998;48.714;9.414;2023-05-10T02:32:42;4.90;;;1.25;;
41263;SDS011;26998;48.714;9.414;2023-05-10T02:35:10;3.67;;;1.00;;
41263;SDS011;26998;48.714;9.414;2023-05-10T02:37:37;1.48;;;0.75;;
41263;SDS011;26998;48.714;9.414;2023-05-10T02:40:06;2.10;;;0.52;;
41263;SDS011;26998;48.714;9.414;2023-05-10T02:42:36;2.85;;;0.63;;
41263;SDS011;26998;48.714;9.414;2023-05-10T02:45:13;2.00;;;0.67;;
41263;SDS011;26998;48.714;9.414;2023-05-10T02:47:50;1.58;;;0.88;;
41263;SDS011;26998;48.714;9.414;2023-05-10T02:50:17;5.70;;;0.93;;
41263;SDS011;26998;48.714;9.414;2023-05-10T02:52:51;1.15;;;0.73;;
41263;SDS011;26998;48.714;9.414;2023-05-10T02:55:22;3.60;;;1.00;;
41263;SDS011;26998;48.714;9.414;2023-05-10T02:57:55;1.10;;;0.55;;
41263;SDS011;26998;48.714;9.414;2023-05-10T03:00:25;1.85;;;0.50;;
41263;SDS011;26998;48.714;9.414;2023-05-10T03:02:52;2.85;;;0.60;;
41263;SDS011;26998;48.714;9.414;2023-05-10T03:05:19;1.38;;;0.70;;
41263;SDS011;26998;48.714;9.414;2023-05-10T03:07:46;0.93;;;0.60;;
41263;SDS011;26998;48.714;9.414;2023-05-10T03:10:13;2.67;;;0.80;;
41263;SDS011;26998;48.714;9.414;2023-05-10T03:15:38;1.25;;;0.77;;
41263;SDS011;26998;48.714;9.414;2023-05-10T03:18:34;1.48;;;0.68;;
41263;SDS011;26998;48.714;9.414;2023-05-10T03:21:08;1.23;;;0.73;;
41263;SDS011;26998;48.714;9.414;2023-05-10T03:23:44;3.10;;;0.90;;
41263;SDS011;26998;48.714;9.414;2023-05-10T03:26:26;2.38;;;0.95;;
41263;SDS011;26998;48.714;9.414;2023-05-10T03:28:53;2.58;;;0.90;;
41263;SDS011;26998;48.714;9.414;2023-05-10T03:31:21;5.63;;;0.70;;
41263;SDS011;26998;48.714;9.414;2023-05-10T03:33:49;2.15;;;0.70;;
41263;SDS011;26998;48.714;9.414;2023-05-10T03:36:18;1.48;;;0.85;;
41263;SDS011;26998;48.714;9.414;2023-05-10T03:38:45;2.95;;;1.05;;
41263;SDS011;26998;48.714;9.414;2023-05-10T03:41:15;5.47;;;1.10;;
41263;SDS011;26998;48.714;9.414;2023-05-10T03:43:42;1.50;;;0.90;;
41263;SDS011;26998;48.714;9.414;2023-05-10T03:46:08;2.83;;;1.20;;
41263;SDS011;26998;48.714;9.414;2023-05-10T03:48:35;2.58;;;1.30;;
41263;SDS011;26998;48.714;9.414;2023-05-10T03:51:01;6.18;;;1.38;;
41263;SDS011;26998;48.714;9.414;2023-05-10T03:53:28;6.13;;;1.33;;
41263;SDS011;26998;48.714;9.414;2023-05-10T03:55:55;4.38;;;1.10;;
41263;SDS011;26998;48.714;9.414;2023-05-10T03:58:22;3.10;;;1.42;;
41263;SDS011;26998;48.714;9.414;2023-05-10T04:00:51;3.72;;;1.30;;
41263;SDS011;26998;48.714;9.414;2023-05-10T04:03:18;4.13;;;1.58;;
41263;SDS011;26998;48.714;9.414;2023-05-10T04:05:45;9.20;;;1.60;;
41263;SDS011;26998;48.714;9.414;2023-05-10T04:08:11;7.93;;;1.90;;
41263;SDS011;26998;48.714;9.414;2023-05-10T04:10:38;10.23;;;2.10;;
41263;SDS011;26998;48.714;9.414;2023-05-10T04:13:05;5.20;;;1.98;;
41263;SDS011;26998;48.714;9.414;2023-05-10T04:15:32;5.35;;;1.17;;
41263;SDS011;26998;48.714;9.414;2023-05-10T04:17:59;8.80;;;1.50;;
41263;SDS011;26998;48.714;9.414;2023-05-10T04:20:25;5.18;;;1.30;;
41263;SDS011;26998;48.714;9.414;2023-05-10T04:22:52;5.32;;;1.60;;
41263;SDS011;26998;48.714;9.414;2023-05-10T04:25:18;7.15;;;1.50;;
41263;SDS011;26998;48.714;9.414;2023-05-10T04:27:45;4.30;;;1.75;;
41263;SDS011;26998;48.714;9.414;2023-05-10T04:30:12;5.07;;;1.88;;
41263;SDS011;26998;48.714;9.414;2023-05-10T04:32:39;3.40;;;1.40;;
41263;SDS011;26998;48.714;9.414;2023-05-10T04:35:06;3.25;;;1.13;;
41263;SDS011;26998;48.714;9.414;2023-05-10T04:37:33;2.97;;;1.40;;
41263;SDS011;26998;48.714;9.414;2023-05-10T04:40:00;6.00;;;2.00;;
41263;SDS011;26998;48.714;9.414;2023-05-10T04:42:26;4.50;;;1.67;;
41263;SDS011;26998;48.714;9.414;2023-05-10T04:44:54;2.42;;;1.15;;
41263;SDS011;26998;48.714;9.414;2023-05-10T04:47:21;4.63;;;1.50;;
41263;SDS011;26998;48.714;9.414;2023-05-10T04:49:49;3.33;;;1.30;;
41263;SDS011;26998;48.714;9.414;2023-05-10T04:52:16;2.45;;;1.10;;
41263;SDS011;26998;48.714;9.414;2023-05-10T04:54:42;4.28;;;2.20;;
41263;SDS011;26998;48.714;9.414;2023-05-10T04:57:10;9.10;;;2.20;;
41263;SDS011;26998;48.714;9.414;2023-05-10T04:59:36;3.13;;;1.65;;
41263;SDS011;26998;48.714;9.414;2023-05-10T05:02:03;3.95;;;1.52;;
41263;SDS011;26998;48.714;9.414;2023-05-10T05:04:31;3.83;;;1.92;;
41263;SDS011;26998;48.714;9.414;2023-05-10T05:06:58;3.63;;;1.90;;
41263;SDS011;26998;48.714;9.414;2023-05-10T05:09:25;4.47;;;2.00;;
41263;SDS011;26998;48.714;9.414;2023-05-10T05:11:52;3.78;;;2.08;;
41263;SDS011;26998;48.714;9.414;2023-05-10T05:14:19;2.80;;;1.90;;
41263;SDS011;26998;48.714;9.414;2023-05-10T05:16:46;3.78;;;1.60;;
41263;SDS011;26998;48.714;9.414;2023-05-10T05:19:13;3.72;;;1.60;;
41263;SDS011;26998;48.714;9.414;2023-05-10T05:21:39;6.43;;;2.08;;
41263;SDS011;26998;48.714;9.414;2023-05-10T05:24:06;2.65;;;1.50;;
41263;SDS011;26998;48.714;9.414;2023-05-10T05:26:33;3.75;;;1.42;;
41263;SDS011;26998;48.714;9.414;2023-05-10T05:29:02;2.30;;;1.48;;
41263;SDS011;26998;48.714;9.414;2023-05-10T05:31:30;4.47;;;1.45;;
41263;SDS011;26998;48.714;9.414;2023-05-10T05:33:57;5.13;;;1.65;;
41263;SDS011;26998;48.714;9.414;2023-05-10T05:36:23;5.22;;;1.50;;
41263;SDS011;26998;48.714;9.414;2023-05-10T05:38:50;1.67;;;1.40;;
41263;SDS011;26998;48.714;9.414;2023-05-10T05:41:17;4.65;;;0.93;;
41263;SDS011;26998;48.714;9.414;2023-05-10T05:43:44;1.63;;;1.17;;
41263;SDS011;26998;48.714;9.414;2023-05-10T05:46:11;2.90;;;1.27;;
41263;SDS011;26998;48.714;9.414;2023-05-10T05:48:38;2.03;;;1.10;;
41263;SDS011;26998;48.714;9.414;2023-05-10T05:51:06;2.10;;;0.90;;
41263;SDS011;26998;48.714;9.414;2023-05-10T05:53:36;1.17;;;0.98;;
41263;SDS011;26998;48.714;9.414;2023-05-10T05:56:03;1.98;;;0.90;;
41263;SDS011;26998;48.714;9.414;2023-05-10T05:58:29;2.78;;;1.33;;
41263;SDS011;26998;48.714;9.414;2023-05-10T06:00:56;3.20;;;1.25;;
41263;SDS011;26998;48.714;9.414;2023-05-10T06:03:26;2.45;;;0.95;;
41263;SDS011;26998;48.714;9.414;2023-05-10T06:05:55;0.90;;;0.90;;
41263;SDS011;26998;48.714;9.414;2023-05-10T06:08:22;1.48;;;0.90;;
41263;SDS011;26998;48.714;9.414;2023-05-10T06:10:49;2.30;;;0.90;;
41263;SDS011;26998;48.714;9.414;2023-05-10T06:13:16;1.15;;;1.05;;
41263;SDS011;26998;48.714;9.414;2023-05-10T06:15:43;1.00;;;0.98;;
41263;SDS011;26998;48.714;9.414;2023-05-10T06:18:10;1.30;;;1.08;;
41263;SDS011;26998;48.714;9.414;2023-05-10T06:20:37;1.98;;;1.17;;
41263;SDS011;26998;48.714;9.414;2023-05-10T06:23:03;2.63;;;1.13;;
41263;SDS011;26998;48.714;9.414;2023-05-10T06:25:30;2.28;;;1.13;;
41263;SDS011;26998;48.714;9.414;2023-05-10T06:27:59;3.38;;;1.30;;
41263;SDS011;26998;48.714;9.414;2023-05-10T06:30:26;2.28;;;1.02;;
41263;SDS011;26998;48.714;9.414;2023-05-10T06:32:53;1.10;;;0.95;;
41263;SDS011;26998;48.714;9.414;2023-05-10T06:35:21;4.90;;;1.38;;
41263;SDS011;26998;48.714;9.414;2023-05-10T06:37:49;1.73;;;0.90;;
41263;SDS011;26998;48.714;9.414;2023-05-10T06:40:16;1.45;;;1.35;;
41263;SDS011;26998;48.714;9.414;2023-05-10T06:42:46;2.80;;;1.50;;
41263;SDS011;26998;48.714;9.414;2023-05-10T06:45:14;2.33;;;1.52;;
41263;SDS011;26998;48.714;9.414;2023-05-10T06:47:43;2.53;;;1.35;;
41263;SDS011;26998;48.714;9.414;2023-05-10T06:50:10;1.35;;;1.10;;
41263;SDS011;26998;48.714;9.414;2023-05-10T06:52:37;1.70;;;1.25;;
41263;SDS011;26998;48.714;9.414;2023-05-10T06:55:04;3.63;;;1.20;;
41263;SDS011;26998;48.714;9.414;2023-05-10T06:57:31;1.20;;;1.15;;
41263;SDS011;26998;48.714;9.414;2023-05-10T06:59:59;3.17;;;1.30;;
41263;SDS011;26998;48.714;9.414;2023-05-10T07:02:26;1.88;;;1.02;;
41263;SDS011;26998;48.714;9.414;2023-05-10T07:04:53;1.40;;;1.30;;
41263;SDS011;26998;48.714;9.414;2023-05-10T07:07:20;3.42;;;1.30;;
41263;SDS011;26998;48.714;9.414;2023-05-10T07:09:46;2.00;;;1.27;;
41263;SDS011;26998;48.714;9.414;2023-05-10T07:12:13;3.85;;;1.20;;
41263;SDS011;26998;48.714;9.414;2023-05-10T07:14:41;2.28;;;1.35;;
41263;SDS011;26998;48.714;9.414;2023-05-10T07:17:08;1.30;;;1.20;;
41263;SDS011;26998;48.714;9.414;2023-05-10T07:19:35;2.70;;;1.48;;
41263;SDS011;26998;48.714;9.414;2023-05-10T07:22:06;1.80;;;1.10;;
41263;SDS011;26998;48.714;9.414;2023-05-10T07:24:33;3.75;;;1.20;;
41263;SDS011;26998;48.714;9.414;2023-05-10T07:27:00;1.40;;;1.30;;
41263;SDS011;26998;48.714;9.414;2023-05-10T07:29:27;2.50;;;1.10;;
41263;SDS011;26998;48.714;9.414;2023-05-10T07:31:54;4.32;;;1.30;;
41263;SDS011;26998;48.714;9.414;2023-05-10T07:34:24;1.52;;;1.25;;
41263;SDS011;26998;48.714;9.414;2023-05-10T07:36:51;2.55;;;1.20;;
41263;SDS011;26998;48.714;9.414;2023-05-10T07:39:18;2.20;;;1.23;;
41263;SDS011;26998;48.714;9.414;2023-05-10T07:41:52;2.42;;;1.05;;
41263;SDS011;26998;48.714;9.414;2023-05-10T07:44:19;2.17;;;1.00;;
41263;SDS011;26998;48.714;9.414;2023-05-10T07:46:45;3.33;;;1.33;;
41263;SDS011;26998;48.714;9.414;2023-05-10T07:49:12;3.03;;;1.05;;
41263;SDS011;26998;48.714;9.414;2023-05-10T07:51:39;2.35;;;1.17;;
41263;SDS011;26998;48.714;9.414;2023-05-10T07:54:06;0.95;;;0.95;;
41263;SDS011;26998;48.714;9.414;2023-05-10T07:56:33;2.53;;;1.38;;
41263;SDS011;26998;48.714;9.414;2023-05-10T07:59:01;2.13;;;1.30;;
41263;SDS011;26998;48.714;9.414;2023-05-10T08:01:32;1.77;;;1.25;;
41263;SDS011;26998;48.714;9.414;2023-05-10T08:04:00;3.47;;;1.25;;
41263;SDS011;26998;48.714;9.414;2023-05-10T08:06:28;2.58;;;1.48;;
41263;SDS011;26998;48.714;9.414;2023-05-10T08:08:55;4.70;;;1.63;;
41263;SDS011;26998;48.714;9.414;2023-05-10T08:11:27;2.63;;;1.55;;
41263;SDS011;26998;48.714;9.414;2023-05-10T08:13:54;2.25;;;1.45;;
41263;SDS011;26998;48.714;9.414;2023-05-10T08:16:20;4.95;;;1.27;;
41263;SDS011;26998;48.714;9.414;2023-05-10T08:18:47;1.55;;;1.17;;
41263;SDS011;26998;48.714;9.414;2023-05-10T08:21:14;1.38;;;1.10;;
41263;SDS011;26998;48.714;9.414;2023-05-10T08:23:41;1.42;;;1.10;;
41263;SDS011;26998;48.714;9.414;2023-05-10T08:26:10;2.35;;;1.10;;
41263;SDS011;26998;48.714;9.414;2023-05-10T08:28:36;3.85;;;1.45;;
41263;SDS011;26998;48.714;9.414;2023-05-10T08:31:03;1.95;;;1.55;;
41263;SDS011;26998;48.714;9.414;2023-05-10T08:33:31;1.90;;;1.10;;
41263;SDS011;26998;48.714;9.414;2023-05-10T08:35:57;1.10;;;1.00;;
41263;SDS011;26998;48.714;9.414;2023-05-10T08:38:26;5.72;;;2.05;;
41263;SDS011;26998;48.714;9.414;2023-05-10T08:40:53;2.53;;;1.23;;
41263;SDS011;26998;48.714;9.414;2023-05-10T08:43:23;1.40;;;0.85;;
41263;SDS011;26998;48.714;9.414;2023-05-10T08:45:53;4.93;;;0.98;;
41263;SDS011;26998;48.714;9.414;2023-05-10T08:48:20;3.60;;;1.35;;
41263;SDS011;26998;48.714;9.414;2023-05-10T08:50:51;1.65;;;0.65;;
41263;SDS011;26998;48.714;9.414;2023-05-10T08:53:19;1.95;;;0.70;;
41263;SDS011;26998;48.714;9.414;2023-05-10T08:55:46;2.45;;;0.82;;
41263;SDS011;26998;48.714;9.414;2023-05-10T08:58:13;2.08;;;0.75;;
41263;SDS011;26998;48.714;9.414;2023-05-10T09:00:41;1.55;;;0.80;;
41263;SDS011;26998;48.714;9.414;2023-05-10T09:03:08;2.70;;;0.80;;
41263;SDS011;26998;48.714;9.414;2023-05-10T09:05:35;1.90;;;0.90;;
41263;SDS011;26998;48.714;9.414;2023-05-10T09:08:04;2.00;;;0.80;;
41263;SDS011;26998;48.714;9.414;2023-05-10T09:10:32;2.47;;;0.75;;
41263;SDS011;26998;48.714;9.414;2023-05-10T09:12:58;2.30;;;0.90;;
41263;SDS011;26998;48.714;9.414;2023-05-10T09:15:25;0.77;;;0.77;;
41263;SDS011;26998;48.714;9.414;2023-05-10T09:17:52;2.88;;;0.80;;
41263;SDS011;26998;48.714;9.414;2023-05-10T09:20:19;3.20;;;0.80;;
41263;SDS011;26998;48.714;9.414;2023-05-10T09:22:45;0.60;;;0.60;;
41263;SDS011;26998;48.714;9.414;2023-05-10T09:25:15;1.75;;;0.73;;
41263;SDS011;26998;48.714;9.414;2023-05-10T09:27:46;2.92;;;0.70;;
41263;SDS011;26998;48.714;9.414;2023-05-10T09:30:17;3.42;;;0.80;;
41263;SDS011;26998;48.714;9.414;2023-05-10T09:32:50;2.88;;;1.00;;
41263;SDS011;26998;48.714;9.414;2023-05-10T09:35:21;2.08;;;0.90;;
41263;SDS011;26998;48.714;9.414;2023-05-10T09:37:52;1.15;;;0.70;;
41263;SDS011;26998;48.714;9.414;2023-05-10T09:40:21;1.50;;;0.70;;
41263;SDS011;26998;48.714;9.414;2023-05-10T09:45:25;1.17;;;0.70;;
41263;SDS011;26998;48.714;9.414;2023-05-10T09:47:53;0.80;;;0.80;;
41263;SDS011;26998;48.714;9.414;2023-05-10T09:50:20;4.93;;;1.33;;
41263;SDS011;26998;48.714;9.414;2023-05-10T09:52:50;2.42;;;0.95;;
41263;SDS011;26998;48.714;9.414;2023-05-10T09:55:19;4.80;;;1.52;;
41263;SDS011;26998;48.714;9.414;2023-05-10T09:57:48;1.98;;;1.17;;
41263;SDS011;26998;48.714;9.414;2023-05-10T10:00:18;4.10;;;1.20;;
41263;SDS011;26998;48.714;9.414;2023-05-10T10:02:47;1.63;;;1.50;;
41263;SDS011;26998;48.714;9.414;2023-05-10T10:05:14;4.10;;;1.20;;
41263;SDS011;26998;48.714;9.414;2023-05-10T10:07:43;6.10;;;1.95;;
41263;SDS011;26998;48.714;9.414;2023-05-10T10:10:13;4.88;;;2.10;;
41263;SDS011;26998;48.714;9.414;2023-05-10T10:12:41;4.55;;;1.48;;
41263;SDS011;26998;48.714;9.414;2023-05-10T10:15:10;2.70;;;1.45;;
41263;SDS011;26998;48.714;9.414;2023-05-10T10:17:41;3.25;;;1.40;;
41263;SDS011;26998;48.714;9.414;2023-05-10T10:20:09;2.45;;;1.25;;
41263;SDS011;26998;48.714;9.414;2023-05-10T10:22:37;2.65;;;1.00;;
41263;SDS011;26998;48.714;9.414;2023-05-10T10:25:07;3.60;;;1.27;;
41263;SDS011;26998;48.714;9.414;2023-05-10T10:35:53;5.15;;;1.30;;
41263;SDS011;26998;48.714;9.414;2023-05-10T10:38:22;4.97;;;1.00;;
41263;SDS011;26998;48.714;9.414;2023-05-10T10:40:49;4.00;;;1.08;;
41263;SDS011;26998;48.714;9.414;2023-05-10T10:43:28;2.58;;;1.02;;
41263;SDS011;26998;48.714;9.414;2023-05-10T10:49:14;2.97;;;1.40;;
41263;SDS011;26998;48.714;9.414;2023-05-10T10:52:12;4.75;;;1.10;;
41263;SDS011;26998;48.714;9.414;2023-05-10T10:57:45;1.58;;;0.85;;
41263;SDS011;26998;48.714;9.414;2023-05-10T11:02:45;0.70;;;0.70;;
41263;SDS011;26998;48.714;9.414;2023-05-10T11:07:55;0.82;;;0.80;;
41263;SDS011;26998;48.714;9.414;2023-05-10T11:10:23;1.63;;;1.10;;
41263;SDS011;26998;48.714;9.414;2023-05-10T11:13:04;1.58;;;0.80;;
41263;SDS011;26998;48.714;9.414;2023-05-10T11:15:38;3.72;;;1.20;;
41263;SDS011;26998;48.714;9.414;2023-05-10T11:18:24;2.30;;;1.25;;
41263;SDS011;26998;48.714;9.414;2023-05-10T11:21:01;4.68;;;1.08;;
41263;SDS011;26998;48.714;9.414;2023-05-10T11:23:29;1.25;;;0.90;;
41263;SDS011;26998;48.714;9.414;2023-05-10T11:26:13;3.33;;;1.02;;
41263;SDS011;26998;48.714;9.414;2023-05-10T11:28:46;3.70;;;1.33;;
41263;SDS011;26998;48.714;9.414;2023-05-10T11:31:15;2.63;;;0.90;;
41263;SDS011;26998;48.714;9.414;2023-05-10T11:33:46;1.70;;;0.82;;
41263;SDS011;26998;48.714;9.414;2023-05-10T11:36:15;3.72;;;1.17;;
41263;SDS011;26998;48.714;9.414;2023-05-10T11:38:44;6.95;;;2.05;;
41263;SDS011;26998;48.714;9.414;2023-05-10T11:41:11;4.90;;;1.13;;
41263;SDS011;26998;48.714;9.414;2023-05-10T11:43:39;2.17;;;0.65;;
41263;SDS011;26998;48.714;9.414;2023-05-10T11:46:06;1.25;;;0.65;;
41263;SDS011;26998;48.714;9.414;2023-05-10T11:48:34;2.08;;;0.65;;
41263;SDS011;26998;48.714;9.414;2023-05-10T11:51:01;3.33;;;0.93;;
41263;SDS011;26998;48.714;9.414;2023-05-10T11:53:29;4.60;;;1.42;;
41263;SDS011;26998;48.714;9.414;2023-05-10T11:56:07;5.97;;;1.48;;
41263;SDS011;26998;48.714;9.414;2023-05-10T11:58:36;10.55;;;2.10;;
41263;SDS011;26998;48.714;9.414;2023-05-10T12:01:05;2.38;;;0.93;;
41263;SDS011;26998;48.714;9.414;2023-05-10T12:03:33;3.58;;;1.10;;
41263;SDS011;26998;48.714;9.414;2023-05-10T12:06:01;3.92;;;0.98;;
41263;SDS011;26998;48.714;9.414;2023-05-10T12:08:29;2.75;;;0.93;;
41263;SDS011;26998;48.714;9.414;2023-05-10T12:11:04;11.05;;;1.20;;
41263;SDS011;26998;48.714;9.414;2023-05-10T12:13:37;2.33;;;1.13;;
41263;SDS011;26998;48.714;9.414;2023-05-10T12:16:26;6.43;;;1.33;;
41263;SDS011;26998;48.714;9.414;2023-05-10T12:18:56;2.17;;;1.35;;
41263;SDS011;26998;48.714;9.414;2023-05-10T12:21:24;2.80;;;1.25;;
41263;SDS011;26998;48.714;9.414;2023-05-10T12:23:52;5.15;;;1.60;;
41263;SDS011;26998;48.714;9.414;2023-05-10T12:26:23;6.80;;;1.35;;
41263;SDS011;26998;48.714;9.414;2023-05-10T12:28:50;1.70;;;1.40;;
41263;SDS011;26998;48.714;9.414;2023-05-10T12:31:17;6.50;;;1.50;;
41263;SDS011;26998;48.714;9.414;2023-05-10T12:33:46;15.55;;;1.92;;
41263;SDS011;26998;48.714;9.414;2023-05-10T12:36:13;5.53;;;1.90;;
41263;SDS011;26998;48.714;9.414;2023-05-10T12:41:09;5.68;;;1.58;;
41263;SDS011;26998;48.714;9.414;2023-05-10T12:43:38;5.47;;;1.50;;
41263;SDS011;26998;48.714;9.414;2023-05-10T12:48:36;2.58;;;1.30;;
41263;SDS011;26998;48.714;9.414;2023-05-10T12:51:04;2.15;;;1.42;;
41263;SDS011;26998;48.714;9.414;2023-05-10T12:53:31;4.03;;;1.65;;
41263;SDS011;26998;48.714;9.414;2023-05-10T12:55:58;3.08;;;1.50;;
41263;SDS011;26998;48.714;9.414;2023-05-10T12:58:25;2.75;;;1.55;;
41263;SDS011;26998;48.714;9.414;2023-05-10T13:01:01;1.40;;;1.05;;
41263;SDS011;26998;48.714;9.414;2023-05-10T13:03:28;2.72;;;1.30;;
41263;SDS011;26998;48.714;9.414;2023-05-10T13:05:58;2.53;;;1.40;;
41263;SDS011;26998;48.714;9.414;2023-05-10T13:08:26;4.95;;;1.45;;
41263;SDS011;26998;48.714;9.414;2023-05-10T13:10:53;2.50;;;1.77;;
41263;SDS011;26998;48.714;9.414;2023-05-10T13:13:20;2.00;;;1.30;;
41263;SDS011;26998;48.714;9.414;2023-05-10T13:15:46;3.22;;;1.48;;
41263;SDS011;26998;48.714;9.414;2023-05-10T13:18:13;4.22;;;1.58;;
41263;SDS011;26998;48.714;9.414;2023-05-10T13:20:44;1.67;;;1.10;;
41263;SDS011;26998;48.714;9.414;2023-05-10T13:23:11;3.95;;;1.70;;
41263;SDS011;26998;48.714;9.414;2023-05-10T13:25:37;6.97;;;1.48;;
41263;SDS011;26998;48.714;9.414;2023-05-10T13:28:04;3.38;;;1.35;;
41263;SDS011;26998;48.714;9.414;2023-05-10T13:30:31;2.45;;;1.50;;
41263;SDS011;26998;48.714;9.414;2023-05-10T13:32:58;3.28;;;1.60;;
41263;SDS011;26998;48.714;9.414;2023-05-10T13:35:24;4.35;;;1.52;;
41263;SDS011;26998;48.714;9.414;2023-05-10T13:37:51;4.20;;;1.48;;
41263;SDS011;26998;48.714;9.414;2023-05-10T13:40:18;2.95;;;1.42;;
41263;SDS011;26998;48.714;9.414;2023-05-10T13:42:45;2.47;;;1.27;;
41263;SDS011;26998;48.714;9.414;2023-05-10T13:45:13;3.05;;;1.40;;
41263;SDS011;26998;48.714;9.414;2023-05-10T13:47:40;2.03;;;1.17;;
41263;SDS011;26998;48.714;9.414;2023-05-10T13:50:07;1.33;;;1.20;;
41263;SDS011;26998;48.714;9.414;2023-05-10T13:52:34;3.92;;;1.60;;
41263;SDS011;26998;48.714;9.414;2023-05-10T13:55:01;3.05;;;1.40;;
41263;SDS011;26998;48.714;9.414;2023-05-10T13:57:30;3.78;;;1.40;;
41263;SDS011;26998;48.714;9.414;2023-05-10T13:59:58;1.75;;;1.30;;
41263;SDS011;26998;48.714;9.414;2023-05-10T14:02:24;1.73;;;1.63;;
41263;SDS011;26998;48.714;9.414;2023-05-10T14:04:51;2.10;;;1.48;;
41263;SDS011;26998;48.714;9.414;2023-05-10T14:07:18;4.25;;;1.75;;
41263;SDS011;26998;48.714;9.414;2023-05-10T14:09:46;3.72;;;1.52;;
41263;SDS011;26998;48.714;9.414;2023-05-10T14:12:13;5.10;;;1.75;;
41263;SDS011;26998;48.714;9.414;2023-05-10T14:14:40;3.33;;;1.63;;
41263;SDS011;26998;48.714;9.414;2023-05-10T14:17:09;4.20;;;1.70;;
41263;SDS011;26998;48.714;9.414;2023-05-10T14:19:38;1.88;;;1.40;;
41263;SDS011;26998;48.714;9.414;2023-05-10T14:22:05;2.75;;;1.58;;
41263;SDS011;26998;48.714;9.414;2023-05-10T14:24:31;4.60;;;1.40;;
41263;SDS011;26998;48.714;9.414;2023-05-10T14:26:58;1.83;;;1.20;;
41263;SDS011;26998;48.714;9.414;2023-05-10T14:29:25;5.80;;;1.63;;
41263;SDS011;26998;48.714;9.414;2023-05-10T14:31:51;5.63;;;1.40;;
41263;SDS011;26998;48.714;9.414;2023-05-10T14:34:18;3.95;;;1.52;;
41263;SDS011;26998;48.714;9.414;2023-05-10T14:36:45;2.88;;;1.23;;
41263;SDS011;26998;48.714;9.414;2023-05-10T14:39:12;1.83;;;1.38;;
41263;SDS011;26998;48.714;9.414;2023-05-10T14:41:39;3.75;;;0.90;;
41263;SDS011;26998;48.714;9.414;2023-05-10T14:44:11;4.88;;;1.50;;
41263;SDS011;26998;48.714;9.414;2023-05-10T14:46:39;1.85;;;1.25;;
41263;SDS011;26998;48.714;9.414;2023-05-10T14:49:07;2.92;;;1.35;;
41263;SDS011;26998;48.714;9.414;2023-05-10T14:51:33;2.10;;;1.40;;
41263;SDS011;26998;48.714;9.414;2023-05-10T14:54:00;3.03;;;1.33;;
41263;SDS011;26998;48.714;9.414;2023-05-10T14:56:29;1.38;;;1.25;;
41263;SDS011;26998;48.714;9.414;2023-05-10T14:58:57;2.33;;;1.17;;
41263;SDS011;26998;48.714;9.414;2023-05-10T15:01:24;1.92;;;1.30;;
41263;SDS011;26998;48.714;9.414;2023-05-10T15:03:51;2.53;;;1.30;;
41263;SDS011;26998;48.714;9.414;2023-05-10T15:06:29;3.25;;;1.20;;
41263;SDS011;26998;48.714;9.414;2023-05-10T15:09:01;5.47;;;1.40;;
41263;SDS011;26998;48.714;9.414;2023-05-10T15:11:29;4.07;;;1.65;;
41263;SDS011;26998;48.714;9.414;2023-05-10T15:13:57;5.15;;;1.60;;
41263;SDS011;26998;48.714;9.414;2023-05-10T15:16:24;6.20;;;1.75;;
41263;SDS011;26998;48.714;9.414;2023-05-10T15:18:51;2.45;;;1.38;;
41263;SDS011;26998;48.714;9.414;2023-05-10T15:21:19;2.92;;;1.25;;
41263;SDS011;26998;48.714;9.414;2023-05-10T15:23:46;1.85;;;1.25;;
41263;SDS011;26998;48.714;9.414;2023-05-10T15:26:13;1.58;;;1.10;;
41263;SDS011;26998;48.714;9.414;2023-05-10T15:28:40;4.43;;;1.25;;
41263;SDS011;26998;48.714;9.414;2023-05-10T15:31:06;1.48;;;0.93;;
41263;SDS011;26998;48.714;9.414;2023-05-10T15:33:36;4.23;;;1.70;;
41263;SDS011;26998;48.714;9.414;2023-05-10T15:36:04;6.18;;;1.30;;